Aviation Digital Data Service (ADDS)

Output produced by METARs form (1205 UTC 24 February 2018)
found at http://www.aviationweather.gov/adds/metars/
 
WBGB 241100Z 36003KT 290V060 9999 SCT014 BKN150 27/26 Q1009
TAF WBGB 241100Z 2412/2512 33007KT 9999 SCT014 
     TEMPO 2412/2416 4000 TSRA FEW005 FEW015CB
       
WMKB 241100Z 20005KT 150V230 7000 -TSRA FEW017CB SCT140 BKN260 25/23 Q1009 NOSIG
TAF WMKB 241100Z 2412/2512 VRB05KT 7000 FEW023 
     TEMPO 2412/2414 6000 -TSRA FEW017CB 
     TEMPO 2415/2417 7000 -RA FEW010 FEW017CB 
     TEMPO 2508/2511 6000 -TSRA FEW017CB
       
WMKE 241100Z 06007KT 340V120 9999 SCT018 BKN260 27/24 Q1010
TAF WMKE 241100Z 2412/2512 05010KT 9999 SCT020
       
TAF WMAP 241100Z 2412/2512 VRB03KT 8000 -RA FEW010 SCT024 
     PROB30 
     TEMPO 2506/2510 4000 TSRA FEW017CB SCT020
       
WBKK 241130Z 03008KT 320V070 9999 FEW015 SCT140 BKN270 28/25 Q1009 NOSIG
TAF WBKK 241100Z 2412/2512 11007KT 9999 FEW015 
     TEMPO 2506/2510 4000 TSRA FEW012 FEW016CB SCT035
       
WMKK 241130Z 05011KT 010V100 9999 FEW017CB SCT140 BKN280 30/23 Q1008 NOSIG
TAF WMKK 241100Z 2412/2518 06012KT 9999 FEW017CB 
     PROB30 
     TEMPO 2413/2417 4000 TSRA FEW015CB SCT018 
     BECMG 2419/2421 3000 HZ FEW008 
     BECMG 2422/2500 8000
       
WMKD 241100Z VRB06KT 9999 FEW017CB SCT160 BKN280 28/24 Q1010 NOSIG
WBGG 241130Z VRB02KT 9999 FEW020 BKN150 25/23 Q1010 NOSIG
TAF WBGG 241100Z 2412/2512 22005KT 9999 SCT020 
     TEMPO 2412/2415 5000 RA FEW005
       
WBKL 241100Z 01008KT 330V050 9999 SCT012 SCT140 BKN290 27/25 Q1009
TAF WBKL 241100Z 2412/2512 02010KT 9999 FEW012
       
WMKL 241100Z 12004KT 090V160 9999 FEW022 SCT140 BKN270 30/24 Q1009
TAF WMKL 241100Z 2412/2512 04010KT 9999 FEW017CB SCT030 
     TEMPO 2412/2416 3000 TSRA FEW015CB SCT020 
     PROB30 
     TEMPO 2508/2512 4000 TSRA FEW015CB SCT018
       
WMKM 241100Z 07008KT 020V110 9999 FEW021 SCT140 BKN260 28/24 Q1009
TAF WMKM 241100Z 2412/2512 06008KT 9999 FEW017CB SCT030 
     PROB30 
     TEMPO 2412/2416 4000 TSRA FEW015CB SCT020
       
WBGR 241100Z 04007KT 010V080 9999 SCT016 BKN150 27/24 Q1009
TAF WBGR 241100Z 2412/2512 03007KT 9999 SCT014
       
WBGB 241100Z 36003KT 290V060 9999 SCT014 BKN150 27/26 Q1009
TAF WBGB 241100Z 2412/2512 33007KT 9999 SCT014 
     TEMPO 2412/2416 4000 TSRA FEW005 FEW015CB
       
WBGG 241130Z VRB02KT 9999 FEW020 BKN150 25/23 Q1010 NOSIG
TAF WBGG 241100Z 2412/2512 22005KT 9999 SCT020 
     TEMPO 2412/2415 5000 RA FEW005
       
WBGR 241100Z 04007KT 010V080 9999 SCT016 BKN150 27/24 Q1009
TAF WBGR 241100Z 2412/2512 03007KT 9999 SCT014
       
WBGS 241100Z 00000KT 9999 SCT016 BKN150 25/24 Q1010
TAF WBGS 241100Z 2412/2512 33005KT 9999 SCT016 
     TEMPO 2412/2415 5000 RA FEW005
       
WBGY 241100Z VRB03KT 9999 SCT020 BKN150 25/24 Q1009
WBKK 241130Z 03008KT 320V070 9999 FEW015 SCT140 BKN270 28/25 Q1009 NOSIG
TAF WBKK 241100Z 2412/2512 11007KT 9999 FEW015 
     TEMPO 2506/2510 4000 TSRA FEW012 FEW016CB SCT035
       
WBKL 241100Z 01008KT 330V050 9999 SCT012 SCT140 BKN290 27/25 Q1009
TAF WBKL 241100Z 2412/2512 02010KT 9999 FEW012
       
WBKS 241100Z 03009KT 350V060 9999 FEW015 BKN280 28/24 Q1010
TAF WBKS 241100Z 2412/2512 06010KT 9999 FEW015 
     TEMPO 2506/2510 4000 TSRA FEW010 FEW016CB SCT030
       
WBKT 241100Z 06007KT 330V120 9999 FEW014 SCT140 BKN270 28/25 Q1010
WBKW 241100Z VRB02KT 9000 -RA FEW010 BKN140 25/25 Q1011 RETS
TAF WBKW 241100Z 2412/2512 34008KT 9999 FEW017
       
WBSB 241130Z 02009KT 9999 SCT015 BKN280 28/25 Q1011 NOSIG
TAF WBSB 241100Z 2412/2518 04008KT 9999 SCT015 FEW016CB 
     TEMPO 2414/2418 4000 TSRA SCT014 FEW015CB 
     TEMPO 2419/2500 8000 -RA FEW004
       
WMKP 241130Z 35006KT 320V020 8000 -TSRA FEW010 FEW017CB SCT025 BKN270 27/23 Q1009 TEMPO 8000 -RA
TAF WMKP 241100Z 2412/2512 34005KT 9000 FEW025 SCT140 BKN270 
     TEMPO 2412/2414 7000 -RA FEW010 FEW017CB
       
TAF WMBT 241100Z 2412/2512 01010KT 7000 -RA FEW010 SCT130 
     PROB30 
     TEMPO 2500/2504 2000 +RA FEW005 SCT020
       
WBKS 241100Z 03009KT 350V060 9999 FEW015 BKN280 28/24 Q1010
TAF WBKS 241100Z 2412/2512 06010KT 9999 FEW015 
     TEMPO 2506/2510 4000 TSRA FEW010 FEW016CB SCT030
       
WBGS 241100Z 00000KT 9999 SCT016 BKN150 25/24 Q1010
TAF WBGS 241100Z 2412/2512 33005KT 9999 SCT016 
     TEMPO 2412/2415 5000 RA FEW005
       
WMSA 241100Z 05006KT 330V120 9999 FEW017CB BKN280 31/22 Q1008
TAF WMSA 241100Z 2412/2512 VRB03KT 9999 FEW017CB SCT020 
     PROB30 
     TEMPO 2412/2416 4000 TSRA FEW015CB SCT018 
     BECMG 2419/2421 3000 HZ FEW008 
     BECMG 2500/2502 7000
       
WMKA 241100Z 08007KT 040V120 9999 FEW020 BKN280 30/24 Q1009
TAF WMKA 241100Z 2412/2512 06008KT 9999 FEW017CB SCT020 
     TEMPO 2508/2512 4000 TSRA FEW015CB SCT018
       
WMKI 241100Z 19004KT 110V260 9999 TS FEW010 FEW017CB SCT140 BKN280 27/24 Q1009
TAF WMKI 241100Z 2412/2512 VRB03KT 9999 FEW017CB 
     TEMPO 2412/2416 4000 TSRA FEW015CB SCT025
       
WMKJ 241100Z VRB03KT 9999 FEW008 SCT130 BKN260 24/23 Q1009
TAF WMKJ 241100Z 2412/2512 VRB03KT 8000 -RA FEW017CB SCT020 
     BECMG 2419/2421 3000 BR FEW010 
     BECMG 2423/2501 8000
       
WMKC 241100Z 09010KT 050V140 9999 FEW010 BKN280 27/23 Q1011
TAF WMKC 241100Z 2412/2512 08012KT 9999 SCT020 
     PROB30 
     TEMPO 2500/2504 5000 -RA FEW017CB
       
WMKN 241100Z 08005KT 360V160 9999 FEW018 SCT150 BKN300 28/23 Q1011
TAF WMKN 241100Z 2412/2512 07008KT 9999 FEW010 SCT150 
     PROB30 
     TEMPO 2500/2504 6000 -RA FEW005 SCT020
       
WBKW 241100Z VRB02KT 9000 -RA FEW010 BKN140 25/25 Q1011 RETS
TAF WBKW 241100Z 2412/2512 34008KT 9999 FEW017